Time;durP1;ratioP1;P1;durP2;ratioP2;P2;SDS_P1;SDS_P2;PMS_P1;PMS_P2;Temp;Humidity;BMP_temperature;BMP_pressure;BME280_temperature;BME280_humidity;BME280_pressure;Samples;Min_cycle;Max_cycle;Signal;HPM_P1;HPM_P2
2022/12/31 00:00:35;;;;;;;16.33;9.73;;;4.70;99.90;;;;;;4780767;30;20136;-71
2022/12/31 00:03:02;;;;;;;16.17;8.60;;;4.70;99.90;;;;;;4784364;29;20051;-71
2022/12/31 00:05:30;;;;;;;13.18;8.93;;;4.70;99.90;;;;;;4784866;29;20049;-71
2022/12/31 00:07:58;;;;;;;12.15;7.15;;;4.60;99.90;;;;;;4785088;29;20055;-71
2022/12/31 00:10:26;;;;;;;17.30;9.32;;;4.60;99.90;;;;;;4795042;29;20047;-71
2022/12/31 00:12:55;;;;;;;14.60;10.00;;;4.60;99.90;;;;;;4783405;29;20091;-71
2022/12/31 00:15:22;;;;;;;14.15;9.15;;;4.60;99.90;;;;;;4785058;29;20078;-71
2022/12/31 00:17:50;;;;;;;14.38;9.45;;;4.60;99.90;;;;;;4783521;29;20063;-71
2022/12/31 00:20:18;;;;;;;13.32;8.68;;;4.60;99.90;;;;;;4784045;29;20200;-71
2022/12/31 00:22:45;;;;;;;13.18;8.13;;;4.60;99.90;;;;;;4785248;29;20051;-71
2022/12/31 00:25:13;;;;;;;17.23;8.93;;;4.60;99.90;;;;;;4784551;29;20055;-71
2022/12/31 00:27:40;;;;;;;13.90;9.02;;;4.60;99.90;;;;;;4782896;29;20503;-71
2022/12/31 00:30:11;;;;;;;14.23;9.23;;;4.60;99.90;;;;;;4784085;29;20058;-70
2022/12/31 00:32:38;;;;;;;17.45;10.32;;;4.60;99.90;;;;;;4784761;29;20071;-70
2022/12/31 00:35:07;;;;;;;16.52;9.93;;;4.60;99.90;;;;;;4784171;29;20505;-71
2022/12/31 00:37:34;;;;;;;19.50;10.25;;;4.60;99.90;;;;;;4784877;29;20047;-71
2022/12/31 00:40:02;;;;;;;16.33;9.70;;;4.60;99.90;;;;;;4783400;30;20332;-71
2022/12/31 00:42:31;;;;;;;16.77;9.73;;;4.60;99.90;;;;;;4783635;29;20488;-71
2022/12/31 00:44:58;;;;;;;12.60;8.75;;;4.70;99.90;;;;;;4777779;30;20162;-71
2022/12/31 00:47:27;;;;;;;13.70;8.90;;;4.60;99.90;;;;;;4784519;29;20059;-70
2022/12/31 00:49:54;;;;;;;12.20;8.18;;;4.60;99.90;;;;;;4784203;29;20094;-70
2022/12/31 00:52:22;;;;;;;11.65;8.38;;;4.60;99.90;;;;;;4785122;29;20067;-71
2022/12/31 00:54:49;;;;;;;13.35;8.35;;;4.60;99.90;;;;;;4783933;29;20055;-70
2022/12/31 00:57:17;;;;;;;13.20;8.25;;;4.60;99.90;;;;;;4785174;29;20063;-70
2022/12/31 00:59:44;;;;;;;12.75;7.88;;;4.50;99.90;;;;;;4784347;29;20090;-70
2022/12/31 01:02:12;;;;;;;13.15;8.43;;;4.50;99.90;;;;;;4783352;29;20067;-71
2022/12/31 01:04:40;;;;;;;15.10;8.75;;;4.50;99.90;;;;;;4783560;29;20158;-70
2022/12/31 01:07:08;;;;;;;13.13;8.38;;;4.50;99.90;;;;;;4785246;29;20078;-70
2022/12/31 01:09:35;;;;;;;13.32;8.20;;;4.40;99.90;;;;;;4782869;29;20063;-70
2022/12/31 01:12:03;;;;;;;14.27;7.80;;;4.50;99.90;;;;;;4780867;29;20063;-70
2022/12/31 01:14:31;;;;;;;15.00;8.27;;;4.50;99.90;;;;;;4783227;29;20539;-70
2022/12/31 01:16:59;;;;;;;12.32;8.30;;;4.50;99.90;;;;;;4783851;30;20055;-69
2022/12/31 01:19:29;;;;;;;13.27;8.27;;;4.50;99.90;;;;;;4783981;29;20453;-69
2022/12/31 01:21:58;;;;;;;15.57;8.38;;;4.60;99.90;;;;;;4787669;29;20055;-70
2022/12/31 01:24:25;;;;;;;13.68;8.38;;;4.60;99.90;;;;;;4787749;29;20101;-69
2022/12/31 01:26:56;;;;;;;16.38;9.30;;;4.60;99.90;;;;;;4786584;29;20051;-70
2022/12/31 01:29:24;;;;;;;12.80;7.93;;;4.60;99.90;;;;;;4786543;29;20084;-70
2022/12/31 01:31:51;;;;;;;14.93;8.15;;;4.70;99.90;;;;;;4787089;29;20154;-70
2022/12/31 01:34:19;;;;;;;13.82;9.20;;;4.60;99.90;;;;;;4787525;29;20089;-70
2022/12/31 01:36:46;;;;;;;13.65;8.63;;;4.60;99.90;;;;;;4787543;29;20047;-70
2022/12/31 01:39:15;;;;;;;20.00;9.50;;;4.60;99.90;;;;;;4786335;29;20066;-70
2022/12/31 01:41:45;;;;;;;19.73;8.20;;;4.60;99.90;;;;;;4783675;30;20112;-70
2022/12/31 01:44:52;;;;;;;17.05;8.52;;;4.50;99.90;;;;;;4787332;30;20437;-70
2022/12/31 01:47:33;;;;;;;14.52;8.85;;;4.50;99.90;;;;;;4788422;30;20059;-70
2022/12/31 01:50:08;;;;;;;15.68;7.70;;;4.60;99.90;;;;;;4785934;29;20560;-70
2022/12/31 01:52:40;;;;;;;15.27;8.32;;;4.50;99.90;;;;;;4786966;30;20063;-70
2022/12/31 01:55:19;;;;;;;13.63;7.75;;;4.50;99.90;;;;;;4787102;29;20471;-70
2022/12/31 01:57:51;;;;;;;12.63;7.88;;;4.60;99.90;;;;;;4774972;30;20055;-70
2022/12/31 02:00:19;;;;;;;16.20;7.32;;;4.60;99.90;;;;;;4786306;29;20067;-71
2022/12/31 02:02:47;;;;;;;16.42;8.48;;;4.60;99.90;;;;;;4787154;29;20073;-71
2022/12/31 02:05:23;;;;;;;15.75;7.60;;;4.60;99.90;;;;;;4786973;29;20489;-70
2022/12/31 02:07:52;;;;;;;10.57;6.63;;;4.60;99.90;;;;;;4799227;29;20054;-70
2022/12/31 02:10:21;;;;;;;11.85;6.57;;;4.60;99.90;;;;;;4786653;29;20520;-70
2022/12/31 02:12:49;;;;;;;11.00;6.13;;;4.60;99.90;;;;;;4786043;29;20058;-71
2022/12/31 02:15:17;;;;;;;12.75;6.70;;;4.60;99.90;;;;;;4786183;29;20066;-71
2022/12/31 02:17:54;;;;;;;7.82;5.97;;;4.60;99.90;;;;;;4785919;29;20149;-71
2022/12/31 02:21:21;;;;;;;12.95;6.18;;;4.60;99.90;;;;;;4786944;29;20068;-70
2022/12/31 02:24:32;;;;;;;11.43;7.03;;;4.60;99.90;;;;;;4786925;29;20060;-70
2022/12/31 02:27:07;;;;;;;9.32;4.90;;;4.60;99.90;;;;;;4785799;29;20105;-70
2022/12/31 02:30:13;;;;;;;8.80;5.53;;;4.60;99.90;;;;;;4771374;30;20055;-70
2022/12/31 02:33:09;;;;;;;9.30;5.38;;;4.60;99.90;;;;;;4786467;29;20070;-70
2022/12/31 02:35:47;;;;;;;11.32;5.43;;;4.60;99.90;;;;;;4772326;30;20055;-70
2022/12/31 02:38:20;;;;;;;7.38;4.80;;;4.60;99.90;;;;;;4786355;29;20061;-71
2022/12/31 02:40:48;;;;;;;7.25;4.85;;;4.70;99.90;;;;;;4786179;30;20061;-71
2022/12/31 02:43:15;;;;;;;9.65;5.57;;;4.70;99.90;;;;;;4785033;29;20052;-71
2022/12/31 02:45:48;;;;;;;10.05;5.05;;;4.70;99.90;;;;;;4785010;30;20065;-71
2022/12/31 02:48:31;;;;;;;10.75;5.82;;;4.60;99.90;;;;;;4785804;29;20063;-71
2022/12/31 02:51:12;;;;;;;9.00;4.72;;;4.70;99.90;;;;;;4786798;29;20059;-71
2022/12/31 02:54:07;;;;;;;15.57;4.82;;;4.60;99.90;;;;;;4783835;29;20059;-69
2022/12/31 02:56:43;;;;;;;9.23;5.32;;;4.60;99.90;;;;;;4785458;29;20078;-70
2022/12/31 03:02:14;;;;;;;7.72;5.35;;;4.60;99.90;;;;;;4781786;30;20097;-70
2022/12/31 03:04:46;;;;;;;7.38;5.13;;;4.60;99.90;;;;;;4785505;29;20059;-70
2022/12/31 03:07:19;;;;;;;12.43;6.10;;;4.60;99.90;;;;;;4786061;29;20055;-70
2022/12/31 03:09:47;;;;;;;12.10;5.20;;;4.50;99.90;;;;;;4786291;29;20313;-70
2022/12/31 03:15:19;;;;;;;7.47;4.15;;;4.60;99.90;;;;;;4762607;30;20520;-70
2022/12/31 03:17:55;;;;;;;7.75;3.97;;;4.50;99.90;;;;;;4786877;29;20059;-70
2022/12/31 03:23:17;;;;;;;7.25;3.65;;;4.50;99.90;;;;;;4785558;29;20063;-71
2022/12/31 03:25:44;;;;;;;8.30;4.03;;;4.50;99.90;;;;;;4796334;29;20059;-70
2022/12/31 03:28:15;;;;;;;4.28;3.83;;;4.50;99.90;;;;;;4768631;30;20051;-70
2022/12/31 03:30:46;;;;;;;6.05;3.78;;;4.50;99.90;;;;;;4782675;30;20067;-70
2022/12/31 03:33:15;;;;;;;6.70;3.78;;;4.50;99.90;;;;;;4784511;29;20059;-71
2022/12/31 03:35:45;;;;;;;6.80;4.60;;;4.50;99.90;;;;;;4785456;29;20059;-70
2022/12/31 03:38:14;;;;;;;6.30;4.95;;;4.40;99.90;;;;;;4784980;29;20055;-70
2022/12/31 03:40:45;;;;;;;5.55;3.53;;;4.30;99.90;;;;;;4785168;30;20055;-70
2022/12/31 03:43:13;;;;;;;6.43;3.63;;;4.30;99.90;;;;;;4783934;29;20059;-71
2022/12/31 03:45:41;;;;;;;6.20;3.72;;;4.30;99.90;;;;;;4785349;29;20055;-70
2022/12/31 03:48:10;;;;;;;5.97;3.65;;;4.20;99.90;;;;;;4782482;30;20090;-71
2022/12/31 03:50:38;;;;;;;8.82;3.33;;;4.10;99.90;;;;;;4785669;29;20162;-71
2022/12/31 03:53:06;;;;;;;6.32;3.05;;;4.10;99.90;;;;;;4784890;29;20146;-71
2022/12/31 03:55:34;;;;;;;4.13;3.10;;;4.10;99.90;;;;;;4784877;29;20146;-72
2022/12/31 03:58:01;;;;;;;6.15;3.30;;;4.00;99.90;;;;;;4783473;29;20143;-71
2022/12/31 04:00:29;;;;;;;4.55;2.50;;;4.00;99.90;;;;;;4795858;29;20493;-70
2022/12/31 04:02:56;;;;;;;8.20;2.67;;;3.90;99.90;;;;;;4774439;30;20425;-71
2022/12/31 04:05:24;;;;;;;4.18;2.65;;;3.90;99.90;;;;;;4782674;29;20111;-70
2022/12/31 04:07:54;;;;;;;6.00;3.47;;;4.00;99.90;;;;;;4784205;29;20059;-71
2022/12/31 04:10:22;;;;;;;5.10;3.03;;;4.00;99.90;;;;;;4785976;29;20467;-71
2022/12/31 04:12:49;;;;;;;6.53;3.20;;;3.90;99.90;;;;;;4784768;29;20063;-71
2022/12/31 04:15:19;;;;;;;3.85;3.20;;;4.00;99.90;;;;;;4784412;29;20051;-71
2022/12/31 04:17:48;;;;;;;3.80;2.95;;;4.00;99.90;;;;;;4784136;30;20149;-71
2022/12/31 04:20:16;;;;;;;3.80;2.88;;;4.00;99.90;;;;;;4781164;29;20047;-71
2022/12/31 04:22:44;;;;;;;9.10;2.80;;;4.00;99.90;;;;;;4784636;29;20059;-70
2022/12/31 04:25:13;;;;;;;3.20;2.78;;;4.10;99.90;;;;;;4781882;30;20046;-71
2022/12/31 04:27:42;;;;;;;6.63;2.85;;;4.10;99.90;;;;;;4784449;29;20062;-71
2022/12/31 04:30:12;;;;;;;4.57;2.47;;;4.10;99.90;;;;;;4783101;29;20117;-71
2022/12/31 04:32:39;;;;;;;2.72;2.20;;;4.10;99.90;;;;;;4783888;29;20059;-71
2022/12/31 04:35:09;;;;;;;6.35;3.30;;;4.20;99.90;;;;;;4784389;29;20051;-71
2022/12/31 04:37:36;;;;;;;2.60;2.28;;;4.10;99.90;;;;;;4784292;29;20528;-71
2022/12/31 04:40:04;;;;;;;3.58;2.47;;;4.10;99.90;;;;;;4784451;29;20116;-71
2022/12/31 04:42:33;;;;;;;3.72;2.25;;;4.10;99.90;;;;;;4771324;30;20058;-71
2022/12/31 04:45:01;;;;;;;4.15;2.28;;;4.10;99.90;;;;;;4790642;29;20054;-70
2022/12/31 04:47:30;;;;;;;4.57;2.55;;;4.20;99.90;;;;;;4780872;30;20059;-71
2022/12/31 04:49:58;;;;;;;5.57;2.47;;;4.20;99.90;;;;;;4782694;30;20062;-71
2022/12/31 04:52:25;;;;;;;8.20;3.10;;;4.30;99.90;;;;;;4780729;30;20063;-71
2022/12/31 04:54:53;;;;;;;7.85;3.17;;;4.20;99.90;;;;;;4768365;30;20056;-70
2022/12/31 04:57:20;;;;;;;8.05;3.30;;;4.20;99.90;;;;;;4798237;29;20078;-71
2022/12/31 04:59:49;;;;;;;4.43;2.55;;;4.20;99.90;;;;;;4780987;29;20482;-71
2022/12/31 05:02:17;;;;;;;3.80;2.08;;;4.30;99.90;;;;;;4780971;29;20137;-71
2022/12/31 05:04:44;;;;;;;2.97;2.05;;;4.30;99.90;;;;;;4781557;30;20059;-70
2022/12/31 05:07:12;;;;;;;6.35;2.88;;;4.20;99.90;;;;;;4784621;29;20583;-71
2022/12/31 05:09:39;;;;;;;10.20;4.15;;;4.20;99.90;;;;;;4783780;29;20063;-71
2022/12/31 05:12:07;;;;;;;4.80;2.88;;;4.20;99.90;;;;;;4784559;29;20554;-70
2022/12/31 05:14:34;;;;;;;2.80;2.30;;;4.20;99.90;;;;;;4783617;29;20063;-71
2022/12/31 05:17:03;;;;;;;5.88;2.08;;;4.10;99.90;;;;;;4784328;29;20063;-71
2022/12/31 05:19:31;;;;;;;3.67;2.42;;;4.00;99.90;;;;;;4783865;29;20058;-72
2022/12/31 05:24:43;;;;;;;7.38;2.35;;;3.90;99.90;;;;;;4784923;29;20055;-71
2022/12/31 05:27:10;;;;;;;3.65;2.67;;;3.90;99.90;;;;;;4783987;29;20055;-69
2022/12/31 05:29:38;;;;;;;3.55;2.83;;;3.90;99.90;;;;;;4798315;29;20086;-71
2022/12/31 05:32:07;;;;;;;7.78;2.75;;;3.80;99.90;;;;;;4784647;30;20051;-70
2022/12/31 05:34:34;;;;;;;5.38;2.33;;;3.80;99.90;;;;;;4783306;29;20088;-71
2022/12/31 05:37:02;;;;;;;6.47;3.00;;;3.80;99.90;;;;;;4783652;29;20058;-71
2022/12/31 05:39:29;;;;;;;5.20;2.92;;;3.80;99.90;;;;;;4784708;29;20055;-70
2022/12/31 05:41:57;;;;;;;4.55;2.65;;;3.70;99.90;;;;;;4784924;30;20047;-67
2022/12/31 05:44:24;;;;;;;9.95;3.47;;;3.70;99.90;;;;;;4783908;29;20047;-68
2022/12/31 05:46:52;;;;;;;5.43;3.50;;;3.70;99.90;;;;;;4784670;29;20514;-69
2022/12/31 05:49:21;;;;;;;4.57;3.45;;;3.80;99.90;;;;;;4784730;29;20075;-68
2022/12/31 05:51:49;;;;;;;7.38;3.95;;;3.80;99.90;;;;;;4775680;29;20056;-68
2022/12/31 05:54:16;;;;;;;6.55;3.60;;;3.90;99.90;;;;;;4772906;30;20062;-67
2022/12/31 05:56:44;;;;;;;4.20;3.22;;;3.90;99.90;;;;;;4784689;29;20108;-69
2022/12/31 05:59:11;;;;;;;5.10;3.65;;;4.00;99.90;;;;;;4784273;29;20082;-68
2022/12/31 06:01:39;;;;;;;7.20;3.60;;;4.10;99.90;;;;;;4784316;29;20109;-67
2022/12/31 06:04:06;;;;;;;5.93;3.80;;;4.10;99.90;;;;;;4783558;29;20405;-68
2022/12/31 06:06:35;;;;;;;3.67;2.97;;;4.10;99.90;;;;;;4786354;29;20052;-69
2022/12/31 06:09:03;;;;;;;5.78;3.33;;;4.20;99.90;;;;;;4780918;30;20151;-66
2022/12/31 06:11:31;;;;;;;7.45;3.53;;;4.20;99.90;;;;;;4769400;30;20051;-70
2022/12/31 06:13:59;;;;;;;4.30;3.05;;;4.20;99.90;;;;;;4778261;29;20055;-70
2022/12/31 06:16:27;;;;;;;5.40;3.35;;;4.20;99.90;;;;;;4779570;30;20173;-70
2022/12/31 06:18:55;;;;;;;4.72;2.97;;;4.10;99.90;;;;;;4767546;30;20079;-70
2022/12/31 06:21:23;;;;;;;5.80;3.10;;;4.20;99.90;;;;;;4779422;30;20047;-70
2022/12/31 06:23:52;;;;;;;7.65;3.95;;;4.10;99.90;;;;;;4784030;29;20059;-70
2022/12/31 06:26:19;;;;;;;7.68;3.33;;;4.10;99.90;;;;;;4769254;30;20128;-70
2022/12/31 06:28:48;;;;;;;10.38;3.97;;;4.10;99.90;;;;;;4773842;29;20074;-71
2022/12/31 06:31:16;;;;;;;5.45;3.38;;;4.00;99.90;;;;;;4785171;30;20074;-70
2022/12/31 06:33:45;;;;;;;7.40;3.35;;;4.00;99.90;;;;;;4787091;29;20067;-70
2022/12/31 06:36:15;;;;;;;6.78;4.07;;;4.00;99.90;;;;;;4785680;29;20160;-70
2022/12/31 06:38:45;;;;;;;5.68;4.47;;;4.00;99.90;;;;;;4780118;29;20421;-71
2022/12/31 06:41:17;;;;;;;4.32;3.00;;;4.00;99.90;;;;;;4780517;29;20448;-69
2022/12/31 06:43:45;;;;;;;4.65;3.33;;;4.10;99.90;;;;;;4777574;29;20055;-70
2022/12/31 06:46:15;;;;;;;6.90;3.80;;;4.10;99.90;;;;;;4785466;30;20104;-78
2022/12/31 06:48:44;;;;;;;4.20;3.10;;;4.00;99.90;;;;;;4786387;30;20146;-74
2022/12/31 06:51:17;;;;;;;7.05;3.10;;;4.10;99.90;;;;;;4787997;29;20055;-74
2022/12/31 06:53:46;;;;;;;6.15;3.85;;;4.10;99.90;;;;;;4787100;29;20067;-71
2022/12/31 06:56:19;;;;;;;3.78;3.10;;;4.10;99.90;;;;;;4779820;29;20054;-70
2022/12/31 06:58:48;;;;;;;6.97;2.67;;;4.10;99.90;;;;;;4770809;29;20052;-70
2022/12/31 07:01:42;;;;;;;3.83;2.50;;;4.10;99.90;;;;;;4779508;30;20761;-71
2022/12/31 07:05:02;;;;;;;4.40;3.10;;;4.10;99.90;;;;;;4773858;30;20059;-71
2022/12/31 07:07:35;;;;;;;10.02;3.17;;;4.00;99.90;;;;;;4777586;29;20058;-70
2022/12/31 07:10:16;;;;;;;3.20;2.50;;;4.00;99.90;;;;;;4775893;30;20063;-70
2022/12/31 07:13:06;;;;;;;3.28;2.42;;;4.00;99.90;;;;;;4775605;29;20081;-72
2022/12/31 07:15:50;;;;;;;4.78;2.28;;;4.00;99.90;;;;;;4774947;29;20059;-69
2022/12/31 07:18:28;;;;;;;4.20;2.08;;;3.90;99.90;;;;;;4782130;29;20055;-71
2022/12/31 07:21:00;;;;;;;1.98;1.60;;;4.00;99.90;;;;;;4780294;30;20074;-70
2022/12/31 07:23:29;;;;;;;3.00;2.33;;;4.00;99.90;;;;;;4782118;29;20340;-76
2022/12/31 07:26:13;;;;;;;6.30;2.75;;;4.10;99.90;;;;;;4782291;29;20140;-74
2022/12/31 07:28:56;;;;;;;4.72;2.83;;;4.00;99.90;;;;;;4779448;29;20052;-75
2022/12/31 07:31:37;;;;;;;6.55;2.03;;;4.00;99.90;;;;;;4778384;30;20058;-74
2022/12/31 07:34:11;;;;;;;6.57;1.75;;;4.10;99.90;;;;;;4774902;30;20128;-75
2022/12/31 07:36:56;;;;;;;3.45;1.60;;;4.10;99.90;;;;;;4774706;29;20063;-75
2022/12/31 07:39:34;;;;;;;5.13;1.65;;;4.10;99.90;;;;;;4771608;30;20220;-76
2022/12/31 07:42:17;;;;;;;2.15;1.50;;;4.20;99.90;;;;;;4767809;30;20051;-74
2022/12/31 07:45:01;;;;;;;;;;;4.10;99.90;;;;;;4771690;29;20592;-75
2022/12/31 07:47:31;;;;;;;2.72;1.50;;;4.10;99.90;;;;;;4781614;30;19978;-74
2022/12/31 07:50:00;;;;;;;3.08;1.65;;;4.10;99.90;;;;;;4780906;29;20509;-75
2022/12/31 07:52:32;;;;;;;7.22;1.50;;;4.10;99.90;;;;;;4775271;30;20078;-70
2022/12/31 07:54:59;;;;;;;2.33;1.33;;;4.20;99.90;;;;;;4782064;29;20055;-69
2022/12/31 07:57:36;;;;;;;3.22;1.50;;;4.20;99.90;;;;;;4781502;30;20047;-74
2022/12/31 08:00:12;;;;;;;3.38;1.65;;;4.20;99.90;;;;;;4768791;30;20064;-70
2022/12/31 08:03:13;;;;;;;3.00;1.40;;;4.20;99.90;;;;;;4773424;29;20087;-71
2022/12/31 08:06:00;;;;;;;6.40;4.05;;;4.30;99.90;;;;;;4775518;29;20066;-71
2022/12/31 08:08:38;;;;;;;9.13;3.50;;;4.20;99.90;;;;;;4781623;29;20146;-70
2022/12/31 08:11:19;;;;;;;2.40;2.20;;;4.20;99.90;;;;;;4777886;29;20103;-71
2022/12/31 08:13:49;;;;;;;2.30;1.73;;;4.20;99.90;;;;;;4801721;29;20472;-70
2022/12/31 08:16:18;;;;;;;3.30;1.65;;;4.20;99.90;;;;;;4791388;29;20328;-71
2022/12/31 08:18:47;;;;;;;3.35;1.98;;;4.20;99.90;;;;;;4767721;30;20117;-71
2022/12/31 08:21:31;;;;;;;6.00;2.00;;;4.10;99.90;;;;;;4772739;29;20039;-70
2022/12/31 08:24:13;;;;;;;3.22;1.80;;;4.10;99.90;;;;;;4786792;29;20529;-70
2022/12/31 08:26:50;;;;;;;5.95;2.10;;;4.20;99.90;;;;;;4787307;29;20051;-70
2022/12/31 08:29:34;;;;;;;4.80;2.03;;;4.20;99.90;;;;;;4785118;29;20146;-70
2022/12/31 08:32:12;;;;;;;2.53;2.05;;;4.20;99.90;;;;;;4779101;30;20078;-72
2022/12/31 08:34:48;;;;;;;5.32;2.20;;;4.20;99.90;;;;;;4784701;29;20498;-73
2022/12/31 08:37:23;;;;;;;3.28;2.08;;;4.20;99.90;;;;;;4777874;29;20134;-74
2022/12/31 08:40:11;;;;;;;2.92;1.80;;;4.20;99.90;;;;;;4775867;30;20086;-73
2022/12/31 08:42:51;;;;;;;3.45;1.65;;;4.20;99.90;;;;;;4774891;29;20059;-74
2022/12/31 08:45:27;;;;;;;2.78;1.90;;;4.20;99.90;;;;;;4785890;29;20067;-73
2022/12/31 08:48:02;;;;;;;3.25;1.73;;;4.20;99.90;;;;;;4774516;30;20055;-74
2022/12/31 08:50:31;;;;;;;2.00;1.70;;;4.20;99.90;;;;;;4782230;29;20055;-74
2022/12/31 08:53:00;;;;;;;4.82;1.95;;;4.20;99.90;;;;;;4782106;30;20146;-73
2022/12/31 08:55:29;;;;;;;4.03;1.92;;;4.20;99.90;;;;;;4780193;29;20055;-74
2022/12/31 08:58:13;;;;;;;4.95;1.70;;;4.20;99.90;;;;;;4779747;30;20076;-74
2022/12/31 09:00:43;;;;;;;2.38;1.85;;;4.20;99.90;;;;;;4778031;29;20501;-72
2022/12/31 09:03:30;;;;;;;2.55;1.45;;;4.20;99.90;;;;;;4781926;29;20055;-73
2022/12/31 09:06:07;;;;;;;2.78;1.92;;;4.20;99.90;;;;;;4779532;30;20117;-73
2022/12/31 09:08:46;;;;;;;1.98;1.67;;;4.30;99.90;;;;;;4780602;29;20085;-74
2022/12/31 09:11:18;;;;;;;3.50;1.38;;;4.20;99.90;;;;;;4777784;29;20093;-74
2022/12/31 09:14:18;;;;;;;1.83;1.70;;;4.20;99.90;;;;;;4780691;30;20063;-75
2022/12/31 09:16:55;;;;;;;3.88;2.00;;;4.20;99.90;;;;;;4778368;29;20059;-74
2022/12/31 09:19:24;;;;;;;5.00;1.67;;;4.20;99.90;;;;;;4798439;29;20109;-74
2022/12/31 09:21:55;;;;;;;2.67;1.75;;;4.20;99.90;;;;;;4779152;30;20082;-76
2022/12/31 09:24:32;;;;;;;2.15;1.50;;;4.20;99.90;;;;;;4778532;30;20059;-75
2022/12/31 09:27:13;;;;;;;3.20;1.63;;;4.20;99.90;;;;;;4779240;29;20055;-71
2022/12/31 09:29:53;;;;;;;2.78;1.95;;;4.20;99.90;;;;;;4789615;29;20117;-69
2022/12/31 09:32:35;;;;;;;2.80;1.80;;;4.10;99.90;;;;;;4776715;30;20150;-71
2022/12/31 09:35:16;;;;;;;5.57;2.95;;;4.10;99.90;;;;;;4783275;29;20055;-71
2022/12/31 09:37:55;;;;;;;3.13;1.98;;;4.10;99.90;;;;;;4784017;29;20145;-69
2022/12/31 09:40:57;;;;;;;4.07;1.70;;;4.10;99.90;;;;;;4779799;29;20047;-68
2022/12/31 09:44:12;;;;;;;3.67;1.60;;;4.10;99.90;;;;;;4777505;29;20063;-71
2022/12/31 09:47:38;;;;;;;4.55;1.52;;;4.20;99.90;;;;;;4737489;29;20063;-71
2022/12/31 09:50:47;;;;;;;3.53;1.77;;;4.10;99.90;;;;;;4778933;30;20552;-71
2022/12/31 09:53:51;;;;;;;4.38;1.90;;;4.10;99.90;;;;;;4781769;29;20557;-70
2022/12/31 09:56:28;;;;;;;;;;;4.10;99.90;;;;;;4781832;29;20043;-70
2022/12/31 09:59:03;;;;;;;2.53;1.52;;;4.10;99.90;;;;;;4796321;29;19944;-69
2022/12/31 10:01:50;;;;;;;4.53;1.50;;;4.10;99.90;;;;;;4796324;29;20055;-68
2022/12/31 10:04:55;;;;;;;2.90;1.33;;;4.10;99.90;;;;;;4791115;29;20377;-70
2022/12/31 10:07:48;;;;;;;3.35;1.83;;;4.10;99.90;;;;;;4747891;29;20054;-71
2022/12/31 10:10:34;;;;;;;3.70;1.73;;;4.10;99.90;;;;;;4757207;29;20513;-74
2022/12/31 10:13:34;;;;;;;3.42;1.60;;;4.20;99.90;;;;;;4801332;29;20418;-72
2022/12/31 10:16:40;;;;;;;2.70;1.65;;;4.20;99.90;;;;;;4792162;29;20061;-72
2022/12/31 10:19:58;;;;;;;3.67;1.65;;;4.10;99.90;;;;;;4781715;29;20496;-72
2022/12/31 10:23:01;;;;;;;2.28;1.40;;;4.10;99.90;;;;;;4793505;29;20062;-72
2022/12/31 10:25:58;;;;;;;4.85;1.30;;;4.10;99.90;;;;;;4796831;29;20055;-73
2022/12/31 10:28:34;;;;;;;4.22;1.95;;;4.10;99.90;;;;;;4798436;29;20134;-72
2022/12/31 10:31:14;;;;;;;3.25;1.42;;;4.00;99.90;;;;;;4792241;29;20413;-72
2022/12/31 10:34:12;;;;;;;4.65;1.50;;;4.00;99.90;;;;;;4790452;29;20047;-72
2022/12/31 10:36:58;;;;;;;4.63;1.45;;;4.00;99.90;;;;;;4790793;29;20078;-73
2022/12/31 10:39:53;;;;;;;5.60;2.13;;;3.90;99.90;;;;;;4796291;29;20398;-70
2022/12/31 10:42:52;;;;;;;8.20;2.22;;;3.90;99.90;;;;;;4794812;29;20050;-70
2022/12/31 10:46:11;;;;;;;7.53;2.05;;;3.90;99.90;;;;;;4790585;29;20051;-69
2022/12/31 10:49:42;;;;;;;4.25;1.75;;;3.90;99.90;;;;;;4796011;29;20094;-74
2022/12/31 10:53:11;;;;;;;4.65;1.63;;;4.00;99.90;;;;;;4727992;30;20146;-73
2022/12/31 10:56:14;;;;;;;8.48;1.88;;;3.90;99.90;;;;;;4730196;30;20549;-73
2022/12/31 10:59:20;;;;;;;5.15;1.98;;;4.00;99.90;;;;;;4735948;30;20151;-73
2022/12/31 11:01:55;;;;;;;8.55;2.38;;;3.90;99.90;;;;;;4765339;29;20055;-72
2022/12/31 11:05:18;;;;;;;4.55;2.42;;;3.90;99.90;;;;;;4788022;29;20073;-74
2022/12/31 11:08:06;;;;;;;5.03;2.00;;;4.00;99.90;;;;;;4785883;29;20733;-73
2022/12/31 11:10:59;;;;;;;5.43;2.25;;;4.00;99.90;;;;;;4790339;29;20074;-73
2022/12/31 11:14:09;;;;;;;5.65;1.70;;;4.00;99.90;;;;;;4794301;29;20504;-74
2022/12/31 11:20:28;;;;;;;4.72;1.70;;;4.00;99.90;;;;;;4786979;29;20062;-76
2022/12/31 11:23:27;;;;;;;5.55;2.03;;;4.00;99.90;;;;;;4791516;29;20055;-76
2022/12/31 11:26:09;;;;;;;5.93;2.30;;;4.00;99.90;;;;;;4790043;29;20549;-76
2022/12/31 11:29:16;;;;;;;6.15;1.73;;;4.00;99.90;;;;;;4795941;29;20949;-72
2022/12/31 11:32:23;;;;;;;5.38;1.80;;;4.00;99.90;;;;;;4794114;29;20055;-71
2022/12/31 11:35:28;;;;;;;6.45;2.80;;;4.00;99.90;;;;;;4688211;30;20457;-73
2022/12/31 11:38:19;;;;;;;4.43;1.65;;;4.10;99.90;;;;;;4788715;29;20137;-75
2022/12/31 11:41:15;;;;;;;;;;;;;;;;;;;;;
2022/12/31 11:44:02;;;;;;;7.53;2.17;;;4.10;99.90;;;;;;4790555;29;20065;-70
2022/12/31 11:46:59;;;;;;;7.75;1.90;;;4.00;99.90;;;;;;4794724;29;20066;-70
2022/12/31 11:49:53;;;;;;;7.07;2.22;;;4.00;99.90;;;;;;4788142;29;20086;-76
2022/12/31 11:52:44;;;;;;;12.40;2.63;;;4.00;99.90;;;;;;4793592;29;20150;-76
2022/12/31 11:55:41;;;;;;;7.85;2.40;;;4.00;99.90;;;;;;4786709;29;20161;-75
2022/12/31 11:58:15;;;;;;;4.20;2.40;;;4.00;99.90;;;;;;4791182;29;20115;-76
2022/12/31 12:00:56;;;;;;;9.02;2.22;;;4.00;99.90;;;;;;4792253;29;20437;-76
2022/12/31 12:03:26;;;;;;;5.60;2.53;;;4.10;99.90;;;;;;4793014;29;20092;-76
2022/12/31 12:05:59;;;;;;;7.50;2.33;;;4.10;99.90;;;;;;4786392;29;20065;-74
2022/12/31 12:08:30;;;;;;;8.25;2.30;;;4.10;99.90;;;;;;4793986;29;20354;-74
2022/12/31 12:11:05;;;;;;;7.82;2.30;;;4.10;99.90;;;;;;4791735;29;20055;-76
2022/12/31 12:13:46;;;;;;;6.47;2.25;;;4.10;99.90;;;;;;4794096;29;20505;-77
2022/12/31 12:16:19;;;;;;;12.05;2.47;;;4.10;99.90;;;;;;4795850;29;20157;-71
2022/12/31 12:18:51;;;;;;;6.53;3.05;;;4.10;99.90;;;;;;4797637;29;20479;-75
2022/12/31 12:21:26;;;;;;;4.80;1.90;;;4.10;99.90;;;;;;4795709;29;20483;-75
2022/12/31 12:23:58;;;;;;;8.40;2.50;;;4.00;99.90;;;;;;4793944;29;20053;-74
2022/12/31 12:27:01;;;;;;;8.07;2.58;;;4.00;99.90;;;;;;4792041;29;20062;-71
2022/12/31 12:29:59;;;;;;;7.20;2.90;;;3.90;99.90;;;;;;4779899;29;20409;-77
2022/12/31 12:32:32;;;;;;;5.03;2.88;;;4.00;99.90;;;;;;4788341;29;20059;-70
2022/12/31 12:35:01;;;;;;;11.45;2.45;;;4.00;99.90;;;;;;4792810;29;20047;-78
2022/12/31 12:37:34;;;;;;;9.02;2.72;;;4.00;99.90;;;;;;4797293;29;20059;-75
2022/12/31 12:40:05;;;;;;;8.85;2.47;;;4.00;99.90;;;;;;4796561;29;20079;-72
2022/12/31 12:42:46;;;;;;;12.73;2.72;;;4.00;99.90;;;;;;4796641;29;20073;-71
2022/12/31 12:45:18;;;;;;;7.03;2.80;;;4.00;99.90;;;;;;4788657;29;20051;-72
2022/12/31 12:47:51;;;;;;;12.07;2.72;;;4.00;99.90;;;;;;4795133;29;20070;-74
2022/12/31 12:50:23;;;;;;;7.68;2.28;;;4.00;99.90;;;;;;4784296;29;20105;-71
2022/12/31 12:53:15;;;;;;;8.10;2.25;;;;;;;;;;4790302;29;20054;-69
2022/12/31 12:55:55;;;;;;;6.75;2.40;;;4.10;99.90;;;;;;4794343;29;20149;-71
2022/12/31 12:58:41;;;;;;;8.32;2.40;;;4.00;99.90;;;;;;4767637;29;20657;-73
2022/12/31 13:01:23;;;;;;;10.73;2.67;;;4.00;99.90;;;;;;4792134;29;20055;-75
2022/12/31 13:04:17;;;;;;;9.77;2.38;;;4.00;99.90;;;;;;4793014;29;20054;-74
2022/12/31 13:07:01;;;;;;;2.97;2.30;;;4.10;99.90;;;;;;4789034;29;20046;-75
2022/12/31 13:09:45;;;;;;;9.80;3.03;;;4.10;99.90;;;;;;4787277;29;20050;-74
2022/12/31 13:12:18;;;;;;;;;;;4.10;99.90;;;;;;4792148;29;20086;-74
2022/12/31 13:14:57;;;;;;;6.82;3.00;;;4.10;99.90;;;;;;4792908;29;19974;-74
2022/12/31 13:17:46;;;;;;;13.23;3.63;;;4.10;99.90;;;;;;4786234;29;21063;-73
2022/12/31 13:20:37;;;;;;;8.75;3.53;;;4.10;99.90;;;;;;4791491;29;20059;-77
2022/12/31 13:23:25;;;;;;;15.40;3.55;;;4.20;99.90;;;;;;4789438;29;20515;-74
2022/12/31 13:26:04;;;;;;;9.73;3.28;;;4.20;99.90;;;;;;4794488;29;20146;-74
2022/12/31 13:28:33;;;;;;;12.35;3.53;;;4.20;99.90;;;;;;4796302;29;20512;-75
2022/12/31 13:31:06;;;;;;;9.82;4.43;;;4.30;99.90;;;;;;4793606;29;20599;-75
2022/12/31 13:33:38;;;;;;;7.97;3.28;;;4.30;99.90;;;;;;4788767;29;20059;-74
2022/12/31 13:36:16;;;;;;;8.88;3.75;;;4.30;99.90;;;;;;4788836;29;20054;-72
2022/12/31 13:38:47;;;;;;;6.93;3.53;;;4.30;99.90;;;;;;4775793;29;20158;-70
2022/12/31 13:41:21;;;;;;;5.57;3.65;;;4.30;99.90;;;;;;4790633;29;20082;-71
2022/12/31 13:43:58;;;;;;;10.25;4.22;;;4.30;99.90;;;;;;4790345;29;20308;-72
2022/12/31 13:46:37;;;;;;;9.25;3.90;;;4.30;99.90;;;;;;4795005;29;20063;-70
2022/12/31 13:49:15;;;;;;;10.43;4.35;;;4.30;99.90;;;;;;4795182;29;20115;-74
2022/12/31 13:51:47;;;;;;;8.57;4.28;;;4.30;99.90;;;;;;4784817;29;20149;-74
2022/12/31 13:54:30;;;;;;;9.30;3.70;;;4.30;99.90;;;;;;4783178;29;20051;-75
2022/12/31 13:57:05;;;;;;;12.75;4.10;;;4.30;99.90;;;;;;4787740;29;20055;-74
2022/12/31 13:59:38;;;;;;;8.93;4.10;;;4.30;99.90;;;;;;4790790;29;20166;-74
2022/12/31 14:02:36;;;;;;;10.68;4.60;;;4.30;99.90;;;;;;4783064;29;20504;-74